KDPL

Duplin Co Airport

Kenansville, North Carolina, USA
METAR KDPL 180655Z AUTO 34004KT 1/2SM -RA FG OVC003 09/09 A3010 RMK AO2
Observed Flight Rules
Feb-18 @ 06:55 UTC (18 minutes ago) Instrument Flight Rules
Wind Visibility Clouds Conditions
340° at 4 knots 1/2 miles
  • Overcast at 300' AGL
  • Light Rain
  • Fog
Temperatures Readings
Current 9°C / 48°F
Dewpoint 9°C / 48°F
Humidity 100%
Altimeter 30.1" Hg
Pressure 1019 hPa
Elevation 42
METAR KDPL 180655Z AUTO 34004KT 1/2SM -RA FG OVC003 09/09 A3010 RMK AO2
Observed Flight Rules
Feb-18 @ 06:55 UTC
(18 minutes ago)
LIFR
Wind Visibility
340° at 4 knots 1/2 miles
Clouds
  • Overcast at 300' AGL
Conditions
  • Light Rain
  • Fog
Temperature Dewpoint
9°C / 48°F 9°C / 48°F
Humidity Altimeter Pressure
100% 30.1" Hg 1019 hPa